Time;durP1;ratioP1;P1;durP2;ratioP2;P2;SDS_P1;SDS_P2;PMS_P1;PMS_P2;Temp;Humidity;BMP_temperature;BMP_pressure;BME280_temperature;BME280_humidity;BME280_pressure;Samples;Min_cycle;Max_cycle;Signal;HPM_P1;HPM_P2
2023/11/28 00:00:09;;;;;;;14.60;9.93;;;;;;;0.66;100.00;101929.00;4991749;28;20023;-75
2023/11/28 00:02:35;;;;;;;15.07;9.80;;;;;;;0.96;100.00;101957.84;4991286;28;20041;-77
2023/11/28 00:05:01;;;;;;;12.70;9.63;;;;;;;0.53;100.00;101940.13;4989628;28;20034;-73
2023/11/28 00:07:27;;;;;;;13.65;8.57;;;;;;;0.97;100.00;101951.19;4973995;28;20222;-75
2023/11/28 00:09:52;;;;;;;13.50;9.35;;;;;;;0.93;100.00;101951.84;4990952;28;20046;-74
2023/11/28 00:12:17;;;;;;;10.73;8.02;;;;;;;0.37;100.00;101881.84;4989887;28;20038;-75
2023/11/28 00:14:43;;;;;;;12.10;8.25;;;;;;;0.47;100.00;101931.50;4991035;28;20041;-75
2023/11/28 00:17:08;;;;;;;10.95;8.02;;;;;;;0.28;100.00;101869.78;4990926;28;20092;-74
2023/11/28 00:19:34;;;;;;;11.32;8.18;;;;;;;0.26;100.00;101865.53;4990594;28;20045;-75
2023/11/28 00:21:59;;;;;;;10.68;7.97;;;;;;;0.71;100.00;101945.06;4990984;28;20031;-75
2023/11/28 00:24:25;;;;;;;11.80;8.50;;;;;;;0.59;100.00;101930.41;4972895;28;20034;-74
2023/11/28 00:26:51;;;;;;;11.77;8.27;;;;;;;0.71;100.00;101945.91;4973324;28;20069;-74
2023/11/28 00:29:16;;;;;;;12.27;8.18;;;;;;;0.42;100.00;101941.28;4990748;28;20520;-74
2023/11/28 00:31:42;;;;;;;14.07;9.77;;;;;;;0.34;100.00;101891.69;4973332;28;20060;-76
2023/11/28 00:34:07;;;;;;;14.60;8.73;;;;;;;-0.32;100.00;101842.06;4973282;28;20029;-74
2023/11/28 00:36:33;;;;;;;10.85;7.93;;;;;;;-0.06;100.00;101934.91;4990563;28;20504;-73
2023/11/28 00:38:58;;;;;;;14.50;8.57;;;;;;;-0.13;100.00;101917.06;4990001;28;20057;-74
2023/11/28 00:41:25;;;;;;;12.73;7.90;;;;;;;-0.51;100.00;101854.47;4973069;28;20030;-74
2023/11/28 00:43:50;;;;;;;11.02;7.60;;;;;;;-0.28;100.00;101864.75;4973163;28;20061;-74
2023/11/28 00:46:18;;;;;;;10.25;7.07;;;;;;;0.46;100.00;101957.28;4990661;28;20468;-74
2023/11/28 00:48:45;;;;;;;7.57;6.22;;;;;;;0.56;100.00;101946.88;4990482;28;20030;-74
2023/11/28 00:51:11;;;;;;;9.85;6.35;;;;;;;0.07;100.00;101953.84;4990228;28;20030;-74
2023/11/28 00:53:36;;;;;;;8.90;6.57;;;;;;;0.07;100.00;101922.97;4990749;28;20062;-73
2023/11/28 00:56:03;;;;;;;8.75;6.07;;;;;;;0.69;100.00;101991.69;4981466;28;20069;-74
2023/11/28 00:58:29;;;;;;;9.30;6.70;;;;;;;0.89;100.00;102003.44;4972633;28;20926;-74
2023/11/28 01:00:54;;;;;;;9.05;6.38;;;;;;;0.84;100.00;101992.34;4972208;28;20026;-73
2023/11/28 01:03:20;;;;;;;9.68;7.15;;;;;;;0.97;100.00;101994.59;4989818;28;20034;-73
2023/11/28 01:05:45;;;;;;;10.93;6.78;;;;;;;0.40;100.00;101910.34;4988256;28;20061;-74
2023/11/28 01:08:11;;;;;;;8.43;6.60;;;;;;;0.56;100.00;101946.88;4990066;28;20033;-74
2023/11/28 01:10:37;;;;;;;9.38;6.60;;;;;;;0.69;100.00;101949.16;4989916;28;20065;-74
2023/11/28 01:13:02;;;;;;;10.23;6.97;;;;;;;0.51;100.00;101919.19;4973176;28;20031;-74
2023/11/28 01:15:28;;;;;;;10.27;7.47;;;;;;;0.42;100.00;101961.28;4990177;28;20034;-74
2023/11/28 01:17:53;;;;;;;9.50;6.97;;;;;;;0.52;100.00;101950.03;4978293;28;21824;-74
2023/11/28 01:20:19;;;;;;;8.80;6.95;;;;;;;0.09;100.00;101873.91;4971448;28;20034;-73
2023/11/28 01:22:44;;;;;;;9.35;6.65;;;;;;;0.06;100.00;101888.78;4972165;28;20070;-73
2023/11/28 01:25:09;;;;;;;8.07;6.40;;;;;;;0.09;100.00;101871.41;4988608;28;20054;-74
2023/11/28 01:27:35;;;;;;;8.60;6.53;;;;;;;-0.02;100.00;101868.47;4972630;28;20413;-73
2023/11/28 01:30:01;;;;;;;8.02;6.53;;;;;;;0.57;100.00;101939.47;4989578;28;20041;-72
2023/11/28 01:32:26;;;;;;;9.60;6.95;;;;;;;-0.21;100.00;101869.25;4972520;28;20092;-73
2023/11/28 01:34:51;;;;;;;8.70;6.13;;;;;;;0.30;100.00;101933.22;4989616;28;20034;-73
2023/11/28 01:37:18;;;;;;;8.23;6.22;;;;;;;0.08;100.00;101893.06;4972280;28;20034;-73
2023/11/28 01:39:44;;;;;;;10.40;6.88;;;;;;;0.17;100.00;101930.13;4972295;28;20027;-75
2023/11/28 01:42:09;;;;;;;8.90;7.25;;;;;;;-0.08;100.00;101893.16;4989682;28;20026;-73
2023/11/28 01:44:35;;;;;;;10.23;7.50;;;;;;;0.33;100.00;101940.03;4989037;28;20043;-73
2023/11/28 01:47:02;;;;;;;10.15;7.85;;;;;;;0.15;100.00;101935.06;4989285;28;20121;-72
2023/11/28 01:49:34;;;;;;;11.40;7.60;;;;;;;-0.37;100.00;101819.38;4988803;28;20036;-74
2023/11/28 01:52:00;;;;;;;;;;;;;;;0.43;100.00;101945.50;4989219;28;20026;-74
2023/11/28 01:54:25;;;;;;;10.52;7.30;;;;;;;0.60;100.00;101954.59;4972174;28;19913;-74
2023/11/28 01:56:51;;;;;;;11.98;8.10;;;;;;;0.19;100.00;101861.03;4981135;28;20555;-74
2023/11/28 01:59:17;;;;;;;17.85;11.10;;;;;;;-0.06;100.00;101849.94;4988821;28;20042;-73
2023/11/28 02:01:44;;;;;;;23.23;11.90;;;;;;;0.10;100.00;101906.47;4988950;28;20034;-73
2023/11/28 02:04:09;;;;;;;26.75;13.55;;;;;;;-0.55;100.00;101833.50;4972364;28;20564;-74
2023/11/28 02:06:35;;;;;;;24.65;13.07;;;;;;;-0.44;100.00;101829.88;4989251;28;20117;-75
2023/11/28 02:09:00;;;;;;;14.73;8.55;;;;;;;-0.13;100.00;101882.09;4971432;28;20038;-74
2023/11/28 02:11:26;;;;;;;18.67;10.23;;;;;;;-0.50;100.00;101838.72;4989086;28;20026;-74
2023/11/28 02:13:51;;;;;;;19.23;10.50;;;;;;;-0.01;100.00;101910.16;4988923;28;20030;-74
2023/11/28 02:16:17;;;;;;;18.88;10.20;;;;;;;-0.17;100.00;101902.72;4989341;28;20106;-74
2023/11/28 02:18:43;;;;;;;14.52;8.40;;;;;;;-0.26;100.00;101888.16;4988922;28;20078;-74
2023/11/28 02:21:13;;;;;;;12.63;7.90;;;;;;;-0.04;100.00;101895.84;4972132;28;20030;-74
2023/11/28 02:23:39;;;;;;;10.23;6.85;;;;;;;-0.56;100.00;101830.94;4989089;28;20493;-73
2023/11/28 02:26:18;;;;;;;8.73;6.75;;;;;;;-0.41;100.00;101832.50;4971937;28;20031;-74
2023/11/28 02:28:44;;;;;;;9.50;6.55;;;;;;;-0.16;100.00;101861.97;4988328;28;20393;-74
2023/11/28 02:31:12;;;;;;;9.20;6.85;;;;;;;-0.09;100.00;101836.47;4989723;28;20029;-74
2023/11/28 02:33:38;;;;;;;10.73;7.35;;;;;;;0.52;100.00;101932.53;4989056;28;20114;-75
2023/11/28 02:36:04;;;;;;;10.88;6.43;;;;;;;0.59;100.00;101939.53;4989395;28;20114;-73
2023/11/28 02:38:29;;;;;;;8.88;6.20;;;;;;;-0.18;100.00;101791.91;4988966;28;20505;-74
2023/11/28 02:40:55;;;;;;;8.27;6.32;;;;;;;0.52;100.00;101910.03;4989476;28;20473;-74
2023/11/28 02:43:20;;;;;;;7.90;5.63;;;;;;;0.19;100.00;101866.03;4989350;28;20029;-74
2023/11/28 02:45:46;;;;;;;9.05;6.05;;;;;;;0.33;100.00;101892.50;4986664;28;20039;-76
2023/11/28 02:48:11;;;;;;;10.70;6.38;;;;;;;0.42;100.00;101897.91;4988886;28;20038;-76
2023/11/28 02:50:38;;;;;;;10.65;6.50;;;;;;;0.36;100.00;101918.50;4988995;28;20033;-76
2023/11/28 02:53:04;;;;;;;8.50;6.20;;;;;;;0.15;100.00;101850.06;4989424;28;20109;-76
2023/11/28 02:55:30;;;;;;;8.73;6.20;;;;;;;-0.16;100.00;101827.81;4969348;28;20034;-76
2023/11/28 02:57:58;;;;;;;10.57;5.65;;;;;;;0.25;100.00;101919.69;4987506;28;20055;-76
2023/11/28 03:00:23;;;;;;;8.15;5.80;;;;;;;0.19;100.00;101881.03;4989011;28;20034;-75
2023/11/28 03:02:49;;;;;;;9.02;5.95;;;;;;;0.69;100.00;101937.47;4973439;28;20033;-75
2023/11/28 03:05:14;;;;;;;8.10;5.90;;;;;;;0.44;100.00;101926.34;4992913;28;20054;-77
2023/11/28 03:07:40;;;;;;;10.70;5.75;;;;;;;0.62;100.00;101943.03;4992091;28;20034;-77
2023/11/28 03:10:06;;;;;;;9.63;6.35;;;;;;;0.18;100.00;101934.34;4991572;28;20126;-77
2023/11/28 03:12:31;;;;;;;8.85;6.20;;;;;;;0.38;100.00;101931.94;4992489;28;20037;-76
2023/11/28 03:14:57;;;;;;;7.75;5.90;;;;;;;-0.06;100.00;101866.59;4991044;28;20022;-76
2023/11/28 03:17:23;;;;;;;9.27;6.40;;;;;;;0.41;100.00;101924.56;4974971;28;20057;-77
2023/11/28 03:19:49;;;;;;;7.93;6.03;;;;;;;0.65;100.00;101932.28;4992744;28;20040;-77
2023/11/28 03:22:15;;;;;;;9.43;6.55;;;;;;;-0.55;100.00;101783.56;4991742;28;20054;-76
2023/11/28 03:24:41;;;;;;;8.85;6.63;;;;;;;0.04;100.00;101835.38;4992255;28;20061;-76
2023/11/28 03:27:07;;;;;;;10.10;6.85;;;;;;;0.36;100.00;101911.00;4992023;28;20500;-76
2023/11/28 03:29:33;;;;;;;9.63;6.68;;;;;;;0.35;100.00;101916.81;4991528;28;20046;-75
2023/11/28 03:31:59;;;;;;;9.38;6.43;;;;;;;0.47;100.00;101901.47;4973441;28;20104;-77
2023/11/28 03:34:24;;;;;;;9.48;6.45;;;;;;;0.45;100.00;101898.91;4974781;28;20038;-76
2023/11/28 03:36:50;;;;;;;8.60;6.18;;;;;;;0.44;100.00;101899.69;4992132;28;20031;-76
2023/11/28 03:39:15;;;;;;;9.25;6.40;;;;;;;0.81;100.00;101900.47;4990800;28;20061;-76
2023/11/28 03:41:41;;;;;;;9.48;6.60;;;;;;;0.56;100.00;101915.22;4990729;28;20042;-76
2023/11/28 03:44:07;;;;;;;10.27;6.55;;;;;;;0.49;100.00;101892.38;4987690;28;20035;-76
2023/11/28 03:46:32;;;;;;;8.23;6.30;;;;;;;-0.17;100.00;101773.66;4991590;28;20061;-75
2023/11/28 03:48:59;;;;;;;8.05;6.10;;;;;;;0.72;100.00;101911.72;4991636;28;20085;-76
2023/11/28 03:51:26;;;;;;;8.70;6.35;;;;;;;0.41;100.00;101838.69;4991152;28;20101;-76
2023/11/28 03:53:51;;;;;;;8.85;6.22;;;;;;;0.89;100.00;101898.31;4974998;28;20154;-76
2023/11/28 03:56:17;;;;;;;8.93;6.13;;;;;;;0.23;100.00;101800.38;4991668;28;20064;-76
2023/11/28 03:58:43;;;;;;;8.35;6.60;;;;;;;-0.01;100.00;101790.19;4991554;28;20048;-75
2023/11/28 04:01:09;;;;;;;8.77;5.60;;;;;;;0.67;100.00;101885.69;4990605;28;20477;-75
2023/11/28 04:03:34;;;;;;;10.45;6.97;;;;;;;0.35;100.00;101801.75;4974542;28;20030;-76
2023/11/28 04:06:00;;;;;;;11.15;7.55;;;;;;;0.71;100.00;101885.03;4974278;28;20042;-75
2023/11/28 04:08:25;;;;;;;9.77;7.28;;;;;;;0.69;100.00;101891.59;4990127;28;20485;-75
2023/11/28 04:10:51;;;;;;;9.25;7.50;;;;;;;0.27;100.00;101820.59;4989922;28;20029;-74
2023/11/28 04:13:17;;;;;;;14.52;7.22;;;;;;;3.08;100.00;101907.50;4989554;28;20109;-72
2023/11/28 04:15:43;;;;;;;9.52;7.18;;;;;;;-0.12;100.00;101737.22;4990782;28;20080;-73
2023/11/28 04:18:11;;;;;;;10.77;6.38;;;;;;;3.86;100.00;101899.13;4990375;28;20497;-73
2023/11/28 04:20:38;;;;;;;8.98;7.00;;;;;;;0.40;100.00;101787.78;4973534;28;20030;-74
2023/11/28 04:23:05;;;;;;;8.55;7.13;;;;;;;1.07;100.00;101869.00;4988353;28;20034;-73
2023/11/28 04:25:30;;;;;;;9.27;7.10;;;;;;;1.14;100.00;101875.13;4973827;28;20512;-73
2023/11/28 04:27:56;;;;;;;9.63;7.50;;;;;;;0.11;100.00;101772.34;4990298;28;20030;-74
2023/11/28 04:30:21;;;;;;;9.88;7.30;;;;;;;0.79;100.00;101864.50;4973000;28;20042;-73
2023/11/28 04:32:47;;;;;;;10.48;7.03;;;;;;;0.59;100.00;101846.97;4973037;28;20035;-74
2023/11/28 04:35:12;;;;;;;8.77;6.93;;;;;;;0.31;100.00;101829.06;4990332;28;20505;-74
2023/11/28 04:37:38;;;;;;;10.70;6.97;;;;;;;0.33;100.00;101825.00;4989257;28;20058;-73
2023/11/28 04:40:04;;;;;;;10.90;6.82;;;;;;;-0.07;100.00;101780.78;4990024;28;20034;-71
2023/11/28 04:42:31;;;;;;;11.15;7.60;;;;;;;-0.61;100.00;101703.38;4987704;28;20057;-74
2023/11/28 04:44:57;;;;;;;9.35;7.10;;;;;;;0.51;100.00;101844.16;4972933;28;20038;-74
2023/11/28 04:47:22;;;;;;;11.65;7.30;;;;;;;0.48;100.00;101820.63;4989734;28;20500;-75
2023/11/28 04:49:48;;;;;;;10.30;7.40;;;;;;;0.08;100.00;101770.56;4972536;28;20030;-75
2023/11/28 04:52:14;;;;;;;11.27;7.70;;;;;;;-0.05;100.00;101805.81;4989469;28;20030;-73
2023/11/28 04:54:39;;;;;;;9.32;7.40;;;;;;;-0.50;100.00;101713.88;4989693;28;20041;-73
2023/11/28 04:57:05;;;;;;;11.18;7.53;;;;;;;0.00;100.00;101837.72;4989199;28;21331;-74
2023/11/28 04:59:30;;;;;;;11.48;7.45;;;;;;;-0.22;100.00;101765.09;4989422;28;20034;-74
2023/11/28 05:01:57;;;;;;;11.57;7.68;;;;;;;0.05;100.00;101780.44;4987493;28;20034;-73
2023/11/28 05:04:22;;;;;;;11.27;8.15;;;;;;;0.24;100.00;101849.63;4989079;28;20519;-72
2023/11/28 05:06:48;;;;;;;11.65;7.65;;;;;;;-0.50;100.00;101703.88;4988921;28;20107;-74
2023/11/28 05:09:17;;;;;;;10.90;7.45;;;;;;;-0.20;100.00;101763.50;4969593;28;20053;-72
2023/11/28 05:11:43;;;;;;;9.85;7.70;;;;;;;0.25;100.00;101838.81;4988681;28;20034;-74
2023/11/28 05:14:09;;;;;;;12.35;8.52;;;;;;;0.28;100.00;101838.94;4971637;28;20124;-76
2023/11/28 05:16:34;;;;;;;12.05;8.68;;;;;;;-0.06;100.00;101769.97;4989830;28;20062;-73
2023/11/28 05:19:00;;;;;;;11.93;8.05;;;;;;;0.44;100.00;101843.78;4987925;28;20058;-73
2023/11/28 05:21:25;;;;;;;10.07;7.90;;;;;;;-0.64;100.00;101708.25;4989079;28;20093;-73
2023/11/28 05:23:51;;;;;;;10.70;7.70;;;;;;;-0.18;100.00;101791.09;4972101;28;20035;-72
2023/11/28 05:26:16;;;;;;;11.77;7.28;;;;;;;0.15;100.00;101855.06;4988306;28;20031;-75
2023/11/28 05:28:42;;;;;;;10.15;6.90;;;;;;;-0.22;100.00;101761.75;4972324;28;20030;-74
2023/11/28 05:31:07;;;;;;;10.25;7.50;;;;;;;-0.01;100.00;101812.66;4988666;28;20485;-74
2023/11/28 05:33:35;;;;;;;9.32;6.88;;;;;;;-0.10;100.00;101783.13;4987605;28;20049;-73
2023/11/28 05:36:00;;;;;;;9.70;6.88;;;;;;;0.28;100.00;101838.94;4971223;28;20560;-72
2023/11/28 05:38:26;;;;;;;12.60;7.68;;;;;;;0.20;100.00;101853.59;4970824;28;20114;-75
2023/11/28 05:40:51;;;;;;;13.13;9.38;;;;;;;0.41;100.00;101841.19;4987094;28;20113;-72
2023/11/28 05:43:17;;;;;;;15.38;9.23;;;;;;;0.71;100.00;101843.31;4987752;28;20456;-75
2023/11/28 05:45:42;;;;;;;19.38;10.93;;;;;;;0.65;100.00;101840.56;4970672;28;20129;-75
2023/11/28 05:48:08;;;;;;;17.92;10.82;;;;;;;0.70;100.00;101848.25;4970987;28;20030;-72
2023/11/28 05:50:33;;;;;;;25.52;11.45;;;;;;;1.27;100.00;101857.31;4969723;28;20066;-72
2023/11/28 05:53:00;;;;;;;18.45;10.18;;;;;;;0.42;100.00;101778.72;4988710;28;20041;-73
2023/11/28 05:55:25;;;;;;;21.50;10.57;;;;;;;0.62;100.00;101832.06;4987063;28;20550;-74
2023/11/28 05:57:51;;;;;;;17.23;10.70;;;;;;;0.18;100.00;101751.84;4987939;28;20129;-73
2023/11/28 06:00:18;;;;;;;16.30;9.88;;;;;;;0.78;100.00;101847.78;4970741;28;20027;-73
2023/11/28 06:02:44;;;;;;;13.10;8.82;;;;;;;0.19;100.00;101776.03;4970212;28;20061;-74
2023/11/28 06:05:11;;;;;;;14.13;9.35;;;;;;;0.00;100.00;101755.25;4988114;28;21500;-74
2023/11/28 06:07:36;;;;;;;13.98;9.25;;;;;;;0.13;100.00;101760.78;4987671;28;20555;-74
2023/11/28 06:10:04;;;;;;;14.60;10.18;;;;;;;0.80;100.00;101833.69;4985412;28;20027;-75
2023/11/28 06:12:29;;;;;;;12.95;8.90;;;;;;;0.94;100.00;101848.41;4987436;28;20026;-73
2023/11/28 06:14:55;;;;;;;10.82;8.55;;;;;;;0.99;100.00;101775.19;4970178;28;20121;-74
2023/11/28 06:17:20;;;;;;;13.98;9.10;;;;;;;1.11;100.00;101835.78;4974321;28;20045;-72
2023/11/28 06:19:46;;;;;;;16.98;10.73;;;;;;;1.37;100.00;101835.16;4987806;28;20455;-74
2023/11/28 06:22:12;;;;;;;17.88;11.10;;;;;;;1.70;100.00;101836.44;4988056;28;20026;-71
2023/11/28 06:24:38;;;;;;;16.17;11.68;;;;;;;0.79;100.00;101751.88;4968716;28;20058;-74
2023/11/28 06:27:07;;;;;;;16.00;11.70;;;;;;;1.06;100.00;101827.25;4987904;28;20113;-73
2023/11/28 06:29:33;;;;;;;15.15;10.68;;;;;;;0.60;100.00;101749.44;4969032;28;20501;-74
2023/11/28 06:31:59;;;;;;;14.38;10.15;;;;;;;2.84;100.00;101838.00;4971882;28;20038;-74
2023/11/28 06:34:28;;;;;;;14.50;10.60;;;;;;;3.79;100.00;101866.16;4989016;28;20039;-74
2023/11/28 06:36:53;;;;;;;14.63;10.75;;;;;;;6.22;100.00;101984.31;4989426;28;20034;-73
2023/11/28 06:39:19;;;;;;;18.30;11.30;;;;;;;4.98;100.00;101951.00;4974431;28;20042;-73
2023/11/28 06:41:47;;;;;;;14.07;10.18;;;;;;;2.04;100.00;101862.78;4992253;28;20430;-72
2023/11/28 06:44:13;;;;;;;19.42;11.77;;;;;;;5.10;100.00;101940.38;4990819;28;20034;-73
2023/11/28 06:46:40;;;;;;;22.85;13.13;;;;;;;5.57;100.00;101946.59;4975016;28;20035;-74
2023/11/28 06:49:05;;;;;;;18.67;11.20;;;;;;;6.67;100.00;101937.31;4974263;28;20030;-73
2023/11/28 06:51:32;;;;;;;16.15;10.70;;;;;;;7.65;100.00;101940.69;4992008;28;20038;-73
2023/11/28 06:53:58;;;;;;;16.20;11.48;;;;;;;7.33;100.00;101939.34;4991479;28;20030;-73
2023/11/28 06:56:24;;;;;;;16.48;11.50;;;;;;;8.05;100.00;101952.25;4974676;28;20378;-71
2023/11/28 06:58:51;;;;;;;19.90;13.10;;;;;;;3.16;100.00;101812.25;4990927;28;20489;-72
2023/11/28 07:01:17;;;;;;;17.25;12.77;;;;;;;2.96;100.00;101747.97;4974113;28;20033;-73
2023/11/28 07:03:42;;;;;;;15.38;11.65;;;;;;;3.15;100.00;101786.28;4991520;28;20026;-72
2023/11/28 07:06:09;;;;;;;16.92;11.85;;;;;;;2.69;100.00;101685.22;4972947;28;20081;-73
2023/11/28 07:08:34;;;;;;;15.75;11.52;;;;;;;2.93;100.00;101647.44;4990558;28;20038;-73
2023/11/28 07:11:00;;;;;;;15.95;11.27;;;;;;;3.25;100.00;101704.50;4991596;28;20050;-73
2023/11/28 07:13:25;;;;;;;14.57;10.02;;;;;;;2.57;100.00;101659.72;4991163;28;20062;-72
2023/11/28 07:15:51;;;;;;;10.52;7.90;;;;;;;2.88;100.00;101662.38;4989714;28;20054;-74
2023/11/28 07:18:20;;;;;;;11.82;8.65;;;;;;;3.28;100.00;101720.53;4991387;28;20125;-74
2023/11/28 07:20:49;;;;;;;9.95;7.25;;;;;;;3.19;100.00;101725.28;4991172;28;20030;-73
2023/11/28 07:23:18;;;;;;;12.43;7.10;;;;;;;3.93;100.00;101751.72;4990938;28;20591;-74
2023/11/28 07:25:45;;;;;;;12.00;8.15;;;;;;;2.77;100.00;101643.63;4990992;28;20034;-74
2023/11/28 07:28:11;;;;;;;9.20;7.45;;;;;;;3.70;100.00;101697.41;4991426;28;20038;-73
2023/11/28 07:30:37;;;;;;;10.57;7.30;;;;;;;3.93;100.00;101744.16;4991410;28;20053;-73
2023/11/28 07:33:03;;;;;;;10.15;7.63;;;;;;;4.14;100.00;101719.59;4990891;28;20026;-70
2023/11/28 07:35:28;;;;;;;12.23;6.75;;;;;;;3.98;100.00;101740.94;4973579;28;20089;-73
2023/11/28 07:37:54;;;;;;;10.60;7.03;;;;;;;3.53;100.00;101651.69;4990254;28;20035;-72
2023/11/28 07:40:19;;;;;;;12.23;6.82;;;;;;;3.99;100.00;101720.03;4991161;28;20032;-73
2023/11/28 07:42:45;;;;;;;9.23;5.88;;;;;;;4.39;100.00;101745.44;4991413;28;20448;-74
2023/11/28 07:45:10;;;;;;;10.48;6.00;;;;;;;4.06;100.00;101669.03;4990950;28;20047;-73
2023/11/28 07:47:37;;;;;;;9.00;6.20;;;;;;;3.98;100.00;101650.38;4990491;28;20022;-71
2023/11/28 07:50:02;;;;;;;9.30;7.05;;;;;;;4.32;100.00;101722.56;4990982;28;20093;-73
2023/11/28 07:52:28;;;;;;;8.02;6.00;;;;;;;3.69;100.00;101635.34;4989720;28;20030;-73
2023/11/28 07:54:53;;;;;;;8.60;5.72;;;;;;;4.34;100.00;101710.84;4973648;28;20042;-73
2023/11/28 07:57:19;;;;;;;8.77;6.10;;;;;;;4.11;100.00;101674.19;4973281;28;20088;-73
2023/11/28 07:59:46;;;;;;;7.82;5.60;;;;;;;4.38;100.00;101657.25;4991353;28;20026;-73
2023/11/28 08:02:13;;;;;;;7.47;5.47;;;;;;;4.14;100.00;101603.84;4991036;28;20041;-73
2023/11/28 08:04:39;;;;;;;6.32;4.68;;;;;;;4.29;100.00;101614.25;4989742;28;20038;-74
2023/11/28 08:07:04;;;;;;;6.78;4.60;;;;;;;4.44;100.00;101631.41;4973396;28;20034;-73
2023/11/28 08:09:30;;;;;;;7.00;4.88;;;;;;;4.14;100.00;101579.50;4973665;28;20636;-75
2023/11/28 08:11:56;;;;;;;5.95;5.15;;;;;;;4.25;100.00;101573.06;4990695;28;20069;-73
2023/11/28 08:14:21;;;;;;;6.75;5.18;;;;;;;4.23;100.00;101592.31;4990688;28;20110;-74
2023/11/28 08:16:47;;;;;;;7.32;4.88;;;;;;;3.90;100.00;101553.75;4990992;28;20129;-74
2023/11/28 08:19:13;;;;;;;7.28;5.30;;;;;;;3.76;100.00;101502.28;4990142;28;20038;-73
2023/11/28 08:21:38;;;;;;;9.13;6.75;;;;;;;4.02;100.00;101506.25;4989066;28;20022;-73
2023/11/28 08:24:04;;;;;;;14.73;8.80;;;;;;;4.79;100.00;101600.31;4973291;28;20485;-74
2023/11/28 08:26:30;;;;;;;10.00;7.35;;;;;;;4.25;100.00;101555.47;4972717;28;20890;-74
2023/11/28 08:28:55;;;;;;;10.90;7.47;;;;;;;3.63;100.00;101429.88;4989999;28;20536;-73
2023/11/28 08:31:23;;;;;;;10.77;8.40;;;;;;;4.46;100.00;101560.09;4990460;28;20030;-76
2023/11/28 08:33:48;;;;;;;10.40;7.90;;;;;;;4.06;100.00;101456.88;4972897;28;20030;-75
2023/11/28 08:36:14;;;;;;;10.45;7.68;;;;;;;4.56;100.00;101511.66;4990177;28;20609;-73
2023/11/28 08:38:39;;;;;;;12.45;9.43;;;;;;;4.58;100.00;101468.88;4972962;28;20038;-74
2023/11/28 08:41:06;;;;;;;13.27;10.05;;;;;;;4.69;100.00;101464.91;4990090;28;20481;-74
2023/11/28 08:43:31;;;;;;;12.63;8.98;;;;;;;4.65;100.00;101451.41;4989305;28;20061;-74
2023/11/28 08:45:57;;;;;;;16.33;11.27;;;;;;;4.64;100.00;101459.78;4972436;28;20038;-74
2023/11/28 08:48:23;;;;;;;14.60;10.90;;;;;;;4.45;100.00;101426.66;4989998;28;20041;-73
2023/11/28 08:50:48;;;;;;;26.33;15.07;;;;;;;4.97;100.00;101515.84;4989514;28;20100;-74
2023/11/28 08:53:14;;;;;;;25.38;13.77;;;;;;;4.78;100.00;101440.75;4989509;28;20054;-71
2023/11/28 08:55:39;;;;;;;11.30;7.57;;;;;;;5.01;100.00;101499.13;4973036;28;20472;-73
2023/11/28 08:58:05;;;;;;;9.95;6.18;;;;;;;5.21;100.00;101505.38;4990392;28;20092;-74
2023/11/28 09:00:30;;;;;;;17.10;8.57;;;;;;;4.65;100.00;101407.75;4972003;28;20134;-75
2023/11/28 09:02:56;;;;;;;14.60;9.27;;;;;;;4.85;100.00;101449.28;4989601;28;20093;-74
2023/11/28 09:05:21;;;;;;;14.55;7.82;;;;;;;4.90;100.00;101428.38;4972470;28;20034;-75
2023/11/28 09:07:49;;;;;;;14.50;7.95;;;;;;;4.53;100.00;101340.38;4972595;28;20041;-75
2023/11/28 09:10:15;;;;;;;20.30;9.52;;;;;;;4.77;100.00;101365.16;4982787;28;20037;-72
2023/11/28 09:12:46;;;;;;;11.45;8.10;;;;;;;4.65;100.00;101343.13;4972443;28;20026;-74
2023/11/28 09:15:13;;;;;;;16.52;8.13;;;;;;;5.14;100.00;101387.63;4989369;28;20065;-74
2023/11/28 09:17:38;;;;;;;12.43;7.60;;;;;;;4.74;100.00;101320.59;4989379;28;20588;-72
2023/11/28 09:20:04;;;;;;;11.73;8.07;;;;;;;4.47;100.00;101256.34;4971643;28;20129;-75
2023/11/28 09:22:30;;;;;;;9.13;6.68;;;;;;;4.79;100.00;101293.84;4989294;28;20031;-76
2023/11/28 09:24:56;;;;;;;9.93;6.65;;;;;;;4.81;100.00;101286.31;4989396;28;20038;-76
2023/11/28 09:27:21;;;;;;;9.65;6.82;;;;;;;5.27;100.00;101359.28;4965204;28;20030;-76
2023/11/28 09:29:46;;;;;;;10.43;6.93;;;;;;;5.02;100.00;101299.22;4989582;28;20023;-75
2023/11/28 09:32:13;;;;;;;11.40;7.38;;;;;;;5.46;100.00;101355.38;4988982;28;20022;-76
2023/11/28 09:34:41;;;;;;;14.60;8.45;;;;;;;5.40;100.00;101345.19;4989327;28;20106;-75
2023/11/28 09:37:06;;;;;;;9.45;6.88;;;;;;;4.40;100.00;101200.84;4988837;28;20034;-75
2023/11/28 09:39:32;;;;;;;7.45;5.72;;;;;;;5.13;100.00;101325.47;4989244;28;20041;-76
2023/11/28 09:41:59;;;;;;;7.47;5.25;;;;;;;5.16;100.00;101310.38;4989205;28;20116;-75
2023/11/28 09:44:28;;;;;;;5.78;4.78;;;;;;;5.16;100.00;101311.22;4988926;28;20033;-76
2023/11/28 09:46:56;;;;;;;7.35;5.32;;;;;;;4.55;100.00;101177.59;4988831;28;20077;-75
2023/11/28 09:49:24;;;;;;;8.70;6.28;;;;;;;5.00;100.00;101222.78;4971757;28;20034;-75
2023/11/28 09:51:52;;;;;;;8.90;6.15;;;;;;;5.53;100.00;101301.66;4989397;28;20042;-76
2023/11/28 09:54:19;;;;;;;9.00;5.72;;;;;;;5.15;100.00;101228.06;4989046;28;20038;-74
2023/11/28 09:56:45;;;;;;;9.52;6.25;;;;;;;5.54;100.00;101275.63;4989170;28;20062;-75
2023/11/28 09:59:13;;;;;;;8.85;6.40;;;;;;;5.48;100.00;101260.41;4989167;28;20058;-76
2023/11/28 10:01:42;;;;;;;8.48;6.80;;;;;;;5.55;100.00;101254.63;4971862;28;20030;-77
2023/11/28 10:04:08;;;;;;;11.13;7.95;;;;;;;5.52;100.00;101245.34;4970072;28;20570;-78
2023/11/28 10:06:34;;;;;;;11.25;8.75;;;;;;;5.04;100.00;101159.84;4988136;28;20038;-75
2023/11/28 10:09:01;;;;;;;11.60;8.30;;;;;;;6.42;100.00;101270.78;4988376;28;20497;-75
2023/11/28 10:11:31;;;;;;;14.74;9.26;;;;;;;5.10;100.00;101159.94;4644186;28;10001058;-76
2023/11/28 10:13:57;;;;;;;14.50;10.93;;;;;;;5.55;100.00;101212.59;4987550;28;20026;-73
2023/11/28 10:16:46;;;;;;;15.23;9.95;;;;;;;5.48;100.00;101207.47;4975749;28;20044;-73
2023/11/28 10:19:12;;;;;;;11.30;7.50;;;;;;;5.32;100.00;101180.38;4972974;28;20046;-75
2023/11/28 10:21:40;;;;;;;13.45;8.57;;;;;;;5.06;100.00;101127.09;4988645;28;20587;-74
2023/11/28 10:24:09;;;;;;;11.65;9.25;;;;;;;5.09;100.00;101124.63;4989442;28;20881;-73
2023/11/28 10:26:37;;;;;;;15.55;10.48;;;;;;;5.48;100.00;101195.72;4972637;28;20042;-75
2023/11/28 10:29:05;;;;;;;12.50;9.50;;;;;;;5.36;100.00;101170.34;4972694;28;20033;-74
2023/11/28 10:31:35;;;;;;;13.60;10.30;;;;;;;4.97;100.00;101091.72;4990731;28;20061;-74
2023/11/28 10:34:01;;;;;;;14.85;10.13;;;;;;;4.94;100.00;101084.97;4990165;28;20038;-77
2023/11/28 10:36:27;;;;;;;14.13;10.02;;;;;;;5.40;100.00;101163.66;4989624;28;20501;-74
2023/11/28 10:38:53;;;;;;;12.77;9.65;;;;;;;5.16;100.00;101114.66;4990979;28;20038;-75
2023/11/28 10:41:19;;;;;;;14.07;9.13;;;;;;;5.29;100.00;101144.19;4991787;28;20041;-75
2023/11/28 10:43:45;;;;;;;14.70;9.77;;;;;;;4.94;100.00;101084.13;4972834;28;20030;-73
2023/11/28 10:46:15;;;;;;;12.88;9.38;;;;;;;4.61;100.00;101026.63;4990075;28;20027;-74
2023/11/28 10:48:40;;;;;;;14.05;10.05;;;;;;;5.04;100.00;101076.69;4991582;28;20078;-73
2023/11/28 10:51:09;;;;;;;16.23;11.35;;;;;;;5.38;100.00;101100.63;4992828;28;20065;-75
2023/11/28 10:53:36;;;;;;;17.00;12.15;;;;;;;4.64;100.00;100978.81;4974798;28;20030;-74
2023/11/28 10:56:03;;;;;;;20.58;10.70;;;;;;;5.20;100.00;101029.84;4991160;28;20069;-72
2023/11/28 10:58:29;;;;;;;14.20;10.68;;;;;;;5.29;100.00;101068.59;4975045;28;20121;-75
2023/11/28 11:01:02;;;;;;;16.92;10.30;;;;;;;4.82;100.00;100988.25;4992119;28;20120;-73
2023/11/28 11:03:28;;;;;;;11.60;9.07;;;;;;;4.98;100.00;100997.66;4975036;28;20032;-75
2023/11/28 11:05:54;;;;;;;12.15;9.23;;;;;;;4.84;100.00;100974.84;4992721;28;20038;-75
2023/11/28 11:08:22;;;;;;;12.55;9.32;;;;;;;4.76;100.00;100960.47;4992698;28;20034;-75
2023/11/28 11:10:48;;;;;;;14.73;10.00;;;;;;;5.17;100.00;101038.19;4992799;28;20092;-75